Time;durP1;ratioP1;P1;durP2;ratioP2;P2;SDS_P1;SDS_P2;PMS_P1;PMS_P2;Temp;Humidity;BMP_temperature;BMP_pressure;BME280_temperature;BME280_humidity;BME280_pressure;Samples;Min_cycle;Max_cycle;Signal;HPM_P1;HPM_P2
2023/07/05 00:00:20;;;;;;;6.85;4.03;;;;;;;;;;6185057;23;20099;-64
2023/07/05 00:02:46;;;;;;;9.52;4.65;;;;;;;;;;6211854;23;20017;-64
2023/07/05 00:05:12;;;;;;;12.80;5.55;;;;;;;;;;6212528;23;20012;-64
2023/07/05 00:07:38;;;;;;;11.10;4.43;;;;;;;;;;6212587;23;20469;-64
2023/07/05 00:10:05;;;;;;;7.45;4.10;;;;;;;;;;6211932;23;20016;-64
2023/07/05 00:12:31;;;;;;;12.95;5.18;;;;;;;;;;6212600;23;20016;-64
2023/07/05 00:14:57;;;;;;;7.32;4.05;;;;;;;;;;6212053;23;20021;-64
2023/07/05 00:17:23;;;;;;;8.65;4.63;;;;;;;;;;6211892;23;20013;-64
2023/07/05 00:19:50;;;;;;;6.03;4.15;;;;;;;;;;6212375;23;20108;-64
2023/07/05 00:22:16;;;;;;;10.98;5.03;;;;;;;;;;6212189;23;20122;-64
2023/07/05 00:24:42;;;;;;;9.85;4.32;;;;;;;;;;6211925;23;20013;-64
2023/07/05 00:27:08;;;;;;;10.77;5.03;;;;;;;;;;6212571;23;20062;-64
2023/07/05 00:29:34;;;;;;;12.60;5.00;;;;;;;;;;6212556;23;20024;-64
2023/07/05 00:32:00;;;;;;;9.23;5.15;;;;;;;;;;6211628;23;20026;-64
2023/07/05 00:34:26;;;;;;;10.50;4.85;;;;;;;;;;6211897;23;20094;-64
2023/07/05 00:36:52;;;;;;;9.00;4.47;;;;;;;;;;6212360;23;20020;-64
2023/07/05 00:39:18;;;;;;;14.02;4.97;;;;;;;;;;6212054;23;20416;-64
2023/07/05 00:41:44;;;;;;;11.35;4.60;;;;;;;;;;6212055;23;20420;-64
2023/07/05 00:44:11;;;;;;;7.95;5.00;;;;;;;;;;6211621;23;20066;-64
2023/07/05 00:46:40;;;;;;;10.63;5.10;;;;;;;;;;6212023;23;20016;-64
2023/07/05 00:49:11;;;;;;;10.88;5.65;;;;;;;;;;6211458;23;20021;-64
2023/07/05 00:51:41;;;;;;;10.80;5.60;;;;;;;;;;6212134;23;20250;-64
2023/07/05 00:54:07;;;;;;;10.68;5.75;;;;;;;;;;6212136;23;20038;-64
2023/07/05 00:56:49;;;;;;;9.55;6.10;;;;;;;;;;6211759;23;20059;-64
2023/07/05 00:59:15;;;;;;;11.50;4.88;;;;;;;;;;6211816;23;20008;-64
2023/07/05 01:01:41;;;;;;;10.23;5.10;;;;;;;;;;6211151;23;20446;-64
2023/07/05 01:04:08;;;;;;;12.02;5.40;;;;;;;;;;6211803;23;20013;-64
2023/07/05 01:06:34;;;;;;;8.50;5.40;;;;;;;;;;6212062;23;20024;-64
2023/07/05 01:09:00;;;;;;;14.15;6.57;;;;;;;;;;6211803;23;20438;-64
2023/07/05 01:11:29;;;;;;;10.68;5.32;;;;;;;;;;6210951;23;20311;-64
2023/07/05 01:13:59;;;;;;;10.38;6.25;;;;;;;;;;6212029;23;20008;-64
2023/07/05 01:16:41;;;;;;;13.95;6.15;;;;;;;;;;6211565;23;20013;-64
2023/07/05 01:19:21;;;;;;;10.15;6.05;;;;;;;;;;6211926;23;20021;-64
2023/07/05 01:21:52;;;;;;;13.52;6.43;;;;;;;;;;6211972;23;20509;-64
2023/07/05 01:24:18;;;;;;;12.95;6.47;;;;;;;;;;6211011;23;20016;-64
2023/07/05 01:27:03;;;;;;;17.60;8.02;;;;;;;;;;6212033;23;20415;-64
2023/07/05 01:30:07;;;;;;;13.38;6.40;;;;;;;;;;6211406;23;20012;-64
2023/07/05 01:32:42;;;;;;;15.32;6.45;;;;;;;;;;6089236;23;20023;-64
2023/07/05 01:35:12;;;;;;;19.10;7.75;;;;;;;;;;6089281;23;20027;-64
2023/07/05 01:37:40;;;;;;;14.38;7.35;;;;;;;;;;6157780;23;20028;-64
2023/07/05 01:40:36;;;;;;;14.35;7.90;;;;;;;;;;6211128;23;20448;-64
2023/07/05 01:43:07;;;;;;;13.45;7.20;;;;;;;;;;6211376;23;20009;-64
2023/07/05 01:45:56;;;;;;;17.90;7.78;;;;;;;;;;6211574;23;20004;-64
2023/07/05 01:48:22;;;;;;;14.18;7.22;;;;;;;;;;6195525;23;20020;-64
2023/07/05 01:50:52;;;;;;;12.10;7.22;;;;;;;;;;6211845;23;20033;-64
2023/07/05 01:53:22;;;;;;;12.45;6.97;;;;;;;;;;6211605;23;20118;-64
2023/07/05 01:55:48;;;;;;;13.60;7.57;;;;;;;;;;6211517;23;20099;-64
2023/07/05 01:58:17;;;;;;;11.55;7.43;;;;;;;;;;6211742;23;20066;-64
2023/07/05 02:00:45;;;;;;;14.90;7.68;;;;;;;;;;6209956;23;20080;-64
2023/07/05 02:03:13;;;;;;;13.60;7.53;;;;;;;;;;6211167;23;20013;-64
2023/07/05 02:05:39;;;;;;;15.00;8.40;;;;;;;;;;6211267;23;20023;-64
2023/07/05 02:08:05;;;;;;;15.88;7.88;;;;;;;;;;6211567;23;20036;-64
2023/07/05 02:10:32;;;;;;;14.43;7.35;;;;;;;;;;6211266;23;20092;-64
2023/07/05 02:12:59;;;;;;;12.52;7.95;;;;;;;;;;6211638;23;20017;-64
2023/07/05 02:15:25;;;;;;;13.35;8.00;;;;;;;;;;6211439;23;20034;-64
2023/07/05 02:17:51;;;;;;;15.70;8.57;;;;;;;;;;6210786;23;20020;-64
2023/07/05 02:20:17;;;;;;;17.42;9.00;;;;;;;;;;6211636;23;20021;-64
2023/07/05 02:22:43;;;;;;;17.70;8.95;;;;;;;;;;6211549;23;20138;-64
2023/07/05 02:25:09;;;;;;;17.92;9.48;;;;;;;;;;6210306;23;20048;-64
2023/07/05 02:27:36;;;;;;;17.88;8.82;;;;;;;;;;6211530;23;20025;-64
2023/07/05 02:30:02;;;;;;;14.20;8.48;;;;;;;;;;6211524;23;20013;-64
2023/07/05 02:32:28;;;;;;;12.52;8.70;;;;;;;;;;6210812;23;20023;-64
2023/07/05 02:34:54;;;;;;;17.02;9.60;;;;;;;;;;6211002;23;20609;-64
2023/07/05 02:37:20;;;;;;;15.90;9.18;;;;;;;;;;6211100;23;20021;-64
2023/07/05 02:39:46;;;;;;;14.70;9.70;;;;;;;;;;6210788;23;20048;-64
2023/07/05 02:42:12;;;;;;;18.05;9.93;;;;;;;;;;6211399;23;20023;-64
2023/07/05 02:44:38;;;;;;;20.85;10.07;;;;;;;;;;6210997;23;20027;-64
2023/07/05 02:47:04;;;;;;;17.50;10.00;;;;;;;;;;6210864;23;20040;-64
2023/07/05 02:49:30;;;;;;;19.45;10.00;;;;;;;;;;6211395;23;20427;-64
2023/07/05 02:51:57;;;;;;;16.58;10.10;;;;;;;;;;6211413;23;20017;-64
2023/07/05 02:54:23;;;;;;;18.77;10.63;;;;;;;;;;6210871;23;20335;-64
2023/07/05 02:56:49;;;;;;;19.02;10.63;;;;;;;;;;6211509;23;20017;-64
2023/07/05 02:59:15;;;;;;;16.73;10.90;;;;;;;;;;6211049;23;20017;-64
2023/07/05 03:01:42;;;;;;;15.85;10.02;;;;;;;;;;6210706;23;20055;-64
2023/07/05 03:04:08;;;;;;;15.65;10.30;;;;;;;;;;6211201;23;20017;-64
2023/07/05 03:06:34;;;;;;;17.63;10.85;;;;;;;;;;6211320;23;20017;-64
2023/07/05 03:09:00;;;;;;;13.57;9.98;;;;;;;;;;6211942;23;20012;-64
2023/07/05 03:11:26;;;;;;;16.40;10.40;;;;;;;;;;6213249;23;20012;-64
2023/07/05 03:13:52;;;;;;;19.00;10.20;;;;;;;;;;6213016;23;20051;-64
2023/07/05 03:16:18;;;;;;;18.95;11.15;;;;;;;;;;6212571;23;20477;-64
2023/07/05 03:18:44;;;;;;;17.00;10.68;;;;;;;;;;6213033;23;20081;-64
2023/07/05 03:21:10;;;;;;;21.23;10.45;;;;;;;;;;6212930;23;20104;-64
2023/07/05 03:23:36;;;;;;;17.77;11.27;;;;;;;;;;6212387;23;20424;-64
2023/07/05 03:26:03;;;;;;;17.08;10.52;;;;;;;;;;6212886;23;20015;-64
2023/07/05 03:28:31;;;;;;;18.73;10.95;;;;;;;;;;6212978;23;20323;-64
2023/07/05 03:30:59;;;;;;;14.27;10.13;;;;;;;;;;6212080;23;20020;-64
2023/07/05 03:33:25;;;;;;;16.52;9.95;;;;;;;;;;6212822;23;20066;-64
2023/07/05 03:35:55;;;;;;;15.35;9.80;;;;;;;;;;6212170;23;20099;-64
2023/07/05 03:38:21;;;;;;;16.85;10.43;;;;;;;;;;6212222;23;20054;-64
2023/07/05 03:40:47;;;;;;;16.20;10.63;;;;;;;;;;6212594;23;20018;-64
2023/07/05 03:43:13;;;;;;;17.40;10.40;;;;;;;;;;6212986;23;20087;-64
2023/07/05 03:45:39;;;;;;;16.10;11.40;;;;;;;;;;6212101;23;20367;-64
2023/07/05 03:48:05;;;;;;;17.83;9.23;;;;;;;;;;6212632;23;20074;-64
2023/07/05 03:50:34;;;;;;;18.13;10.13;;;;;;;;;;6212725;23;20012;-64
2023/07/05 03:53:00;;;;;;;19.38;10.32;;;;;;;;;;6212050;23;20023;-64
2023/07/05 03:55:26;;;;;;;15.90;10.13;;;;;;;;;;6212718;23;20396;-64
2023/07/05 03:57:52;;;;;;;15.85;10.20;;;;;;;;;;6212120;23;20039;-64
2023/07/05 04:00:18;;;;;;;17.55;9.95;;;;;;;;;;6211987;23;20079;-64
2023/07/05 04:02:44;;;;;;;21.52;10.35;;;;;;;;;;6212504;23;20340;-64
2023/07/05 04:05:10;;;;;;;15.57;10.63;;;;;;;;;;6212584;23;20017;-64
2023/07/05 04:07:36;;;;;;;13.63;9.75;;;;;;;;;;6212160;23;20012;-64
2023/07/05 04:10:03;;;;;;;13.05;9.23;;;;;;;;;;6212706;23;20088;-64
2023/07/05 04:12:29;;;;;;;12.15;8.25;;;;;;;;;;6212293;23;20023;-64
2023/07/05 04:14:55;;;;;;;12.15;8.60;;;;;;;;;;6211808;23;20013;-64
2023/07/05 04:17:21;;;;;;;13.77;8.07;;;;;;;;;;6212182;23;20017;-64
2023/07/05 04:19:47;;;;;;;11.13;7.10;;;;;;;;;;6212382;23;20637;-64
2023/07/05 04:22:13;;;;;;;11.25;7.30;;;;;;;;;;6211760;23;20012;-64
2023/07/05 04:24:39;;;;;;;9.90;6.68;;;;;;;;;;6212882;23;20058;-64
2023/07/05 04:27:05;;;;;;;11.23;6.93;;;;;;;;;;6212957;23;20040;-64
2023/07/05 04:29:32;;;;;;;16.65;7.40;;;;;;;;;;6212214;23;20016;-64
2023/07/05 04:31:58;;;;;;;10.65;6.72;;;;;;;;;;6212731;23;20129;-64
2023/07/05 04:34:24;;;;;;;7.60;5.13;;;;;;;;;;6212354;23;20016;-64
2023/07/05 04:36:51;;;;;;;10.77;6.20;;;;;;;;;;6211835;23;20020;-64
2023/07/05 04:39:17;;;;;;;6.38;4.13;;;;;;;;;;6212724;23;20087;-64
2023/07/05 04:41:43;;;;;;;6.47;4.05;;;;;;;;;;6212724;23;20055;-64
2023/07/05 04:44:09;;;;;;;6.13;4.18;;;;;;;;;;6211503;23;20069;-64
2023/07/05 04:46:35;;;;;;;7.60;3.97;;;;;;;;;;6212670;23;20008;-64
2023/07/05 04:49:02;;;;;;;9.45;4.47;;;;;;;;;;6212546;23;20374;-64
2023/07/05 04:51:28;;;;;;;7.63;4.10;;;;;;;;;;6211896;23;20020;-64
2023/07/05 04:53:54;;;;;;;6.10;4.53;;;;;;;;;;6212291;23;20316;-64
2023/07/05 04:56:20;;;;;;;7.43;4.75;;;;;;;;;;6212583;23;20419;-64
2023/07/05 04:58:48;;;;;;;6.40;4.60;;;;;;;;;;6212021;23;20420;-64
2023/07/05 05:01:15;;;;;;;7.65;4.57;;;;;;;;;;6212424;23;20388;-64
2023/07/05 05:03:41;;;;;;;6.78;4.60;;;;;;;;;;6207130;23;20013;-64
2023/07/05 05:06:07;;;;;;;7.00;4.43;;;;;;;;;;6210052;23;20051;-64
2023/07/05 05:08:33;;;;;;;5.68;4.35;;;;;;;;;;6212274;23;20425;-63
2023/07/05 05:11:00;;;;;;;7.20;4.28;;;;;;;;;;6212003;23;20016;-64
2023/07/05 05:13:27;;;;;;;7.28;4.47;;;;;;;;;;6211092;23;20020;-64
2023/07/05 05:15:54;;;;;;;7.82;4.40;;;;;;;;;;6210306;23;20124;-64
2023/07/05 05:18:20;;;;;;;10.40;4.90;;;;;;;;;;6211693;23;20023;-64
2023/07/05 05:20:47;;;;;;;7.38;4.50;;;;;;;;;;6210909;23;20020;-64
2023/07/05 05:23:13;;;;;;;6.22;4.90;;;;;;;;;;6211624;23;20016;-64
2023/07/05 05:25:42;;;;;;;8.35;4.95;;;;;;;;;;6210897;23;20091;-64
2023/07/05 05:28:08;;;;;;;6.18;4.72;;;;;;;;;;6211410;23;20032;-64
2023/07/05 05:30:35;;;;;;;6.38;4.53;;;;;;;;;;6211113;23;20423;-64
2023/07/05 05:33:01;;;;;;;9.77;5.00;;;;;;;;;;6211744;23;20012;-64
2023/07/05 05:35:28;;;;;;;8.85;5.07;;;;;;;;;;6210287;23;20531;-64
2023/07/05 05:37:54;;;;;;;6.00;3.90;;;;;;;;;;6210715;23;20046;-64
2023/07/05 05:40:20;;;;;;;7.43;4.47;;;;;;;;;;6211952;23;20056;-64
2023/07/05 05:42:46;;;;;;;7.85;4.47;;;;;;;;;;6210735;23;20081;-64
2023/07/05 05:45:12;;;;;;;9.18;4.30;;;;;;;;;;6211672;23;20009;-64
2023/07/05 05:47:38;;;;;;;8.05;4.63;;;;;;;;;;6211028;23;20104;-63
2023/07/05 05:50:04;;;;;;;5.85;3.95;;;;;;;;;;6212167;23;20016;-63
2023/07/05 05:52:31;;;;;;;8.73;4.00;;;;;;;;;;6210536;23;20021;-63
2023/07/05 05:54:57;;;;;;;7.95;4.00;;;;;;;;;;6211827;23;20044;-64
2023/07/05 05:57:23;;;;;;;9.68;3.83;;;;;;;;;;6210850;23;20017;-64
2023/07/05 05:59:49;;;;;;;7.63;4.30;;;;;;;;;;6211240;23;20793;-64
2023/07/05 06:02:16;;;;;;;7.25;3.88;;;;;;;;;;6211052;23;20012;-64
2023/07/05 06:04:42;;;;;;;9.63;4.18;;;;;;;;;;6211663;23;20502;-65
2023/07/05 06:07:08;;;;;;;9.35;3.97;;;;;;;;;;6210249;23;20023;-66
2023/07/05 06:09:38;;;;;;;9.52;4.00;;;;;;;;;;6210913;23;20023;-67
2023/07/05 06:12:05;;;;;;;8.75;4.22;;;;;;;;;;6211658;23;20016;-66
2023/07/05 06:14:31;;;;;;;5.78;3.80;;;;;;;;;;6210210;23;20688;-67
2023/07/05 06:16:57;;;;;;;5.70;3.72;;;;;;;;;;6211239;23;20027;-67
2023/07/05 06:19:23;;;;;;;10.80;4.25;;;;;;;;;;6210930;23;20017;-67
2023/07/05 06:21:49;;;;;;;6.88;3.90;;;;;;;;;;6210684;23;20812;-67
2023/07/05 06:24:15;;;;;;;8.02;4.05;;;;;;;;;;6210987;23;20092;-67
2023/07/05 06:26:41;;;;;;;7.10;4.15;;;;;;;;;;6211870;23;20019;-67
2023/07/05 06:29:07;;;;;;;6.75;3.60;;;;;;;;;;6210578;23;20009;-66
2023/07/05 06:31:33;;;;;;;9.05;4.03;;;;;;;;;;6211383;23;20017;-66
2023/07/05 06:34:01;;;;;;;8.00;3.92;;;;;;;;;;6210976;23;20343;-66
2023/07/05 06:36:27;;;;;;;5.40;3.55;;;;;;;;;;6202372;23;20091;-66
2023/07/05 06:38:54;;;;;;;6.38;3.75;;;;;;;;;;6206509;23;20052;-66
2023/07/05 06:41:20;;;;;;;6.45;3.63;;;;;;;;;;6208773;23;20438;-66
2023/07/05 06:43:46;;;;;;;6.00;3.90;;;;;;;;;;6202586;23;20096;-66
2023/07/05 06:46:12;;;;;;;7.07;3.60;;;;;;;;;;6211548;23;20013;-66
2023/07/05 06:48:38;;;;;;;6.97;3.60;;;;;;;;;;6212436;23;20039;-66
2023/07/05 06:51:04;;;;;;;7.65;4.05;;;;;;;;;;6210992;23;20020;-66
2023/07/05 06:53:30;;;;;;;14.35;4.05;;;;;;;;;;6211638;23;20012;-66
2023/07/05 06:55:56;;;;;;;8.20;3.28;;;;;;;;;;6211947;23;20052;-66
2023/07/05 06:58:22;;;;;;;6.97;3.42;;;;;;;;;;6208387;23;20323;-66
2023/07/05 07:00:49;;;;;;;5.55;3.42;;;;;;;;;;6211972;23;20074;-66
2023/07/05 07:03:16;;;;;;;4.10;3.10;;;;;;;;;;6212400;23;20023;-66
2023/07/05 07:05:47;;;;;;;5.20;3.42;;;;;;;;;;6210351;23;20012;-67
2023/07/05 07:08:13;;;;;;;7.22;3.22;;;;;;;;;;6209058;23;20012;-66
2023/07/05 07:10:40;;;;;;;8.18;3.20;;;;;;;;;;6211641;23;20142;-67
2023/07/05 07:13:06;;;;;;;5.55;3.40;;;;;;;;;;6201901;23;20016;-66
2023/07/05 07:15:32;;;;;;;4.60;3.05;;;;;;;;;;6209845;23;20439;-66
2023/07/05 07:17:58;;;;;;;9.60;3.42;;;;;;;;;;6207432;23;20122;-66
2023/07/05 07:20:25;;;;;;;6.50;3.70;;;;;;;;;;6211323;23;20108;-66
2023/07/05 07:22:51;;;;;;;5.55;3.47;;;;;;;;;;6210478;23;20015;-66
2023/07/05 07:25:17;;;;;;;6.25;3.38;;;;;;;;;;6211670;23;20009;-66
2023/07/05 07:27:44;;;;;;;6.18;3.50;;;;;;;;;;6209869;23;20019;-66
2023/07/05 07:30:10;;;;;;;9.30;3.30;;;;;;;;;;6211295;23;20327;-66
2023/07/05 07:32:36;;;;;;;5.28;3.70;;;;;;;;;;6211446;23;20017;-66
2023/07/05 07:35:03;;;;;;;5.70;3.47;;;;;;;;;;6209743;23;20040;-66
2023/07/05 07:37:31;;;;;;;4.68;2.95;;;;;;;;;;6210766;23;20378;-66
2023/07/05 07:39:57;;;;;;;5.65;2.17;;;;;;;;;;6207930;23;20416;-66
2023/07/05 07:42:23;;;;;;;3.65;2.00;;;;;;;;;;6207354;23;20098;-67
2023/07/05 07:44:49;;;;;;;6.07;1.88;;;;;;;;;;6210963;23;20098;-67
2023/07/05 07:47:15;;;;;;;2.30;1.40;;;;;;;;;;6211536;23;20013;-67
2023/07/05 07:49:41;;;;;;;5.93;1.30;;;;;;;;;;6209781;23;20074;-66
2023/07/05 07:52:10;;;;;;;5.78;1.60;;;;;;;;;;6210866;23;20016;-66
2023/07/05 07:54:36;;;;;;;5.15;1.20;;;;;;;;;;6209862;23;20058;-66
2023/07/05 07:57:02;;;;;;;3.45;1.55;;;;;;;;;;6211806;23;20017;-66
2023/07/05 07:59:28;;;;;;;3.33;1.23;;;;;;;;;;6210137;23;20017;-66
2023/07/05 08:01:54;;;;;;;2.17;1.10;;;;;;;;;;6211431;23;20009;-66
2023/07/05 08:04:20;;;;;;;1.00;0.77;;;;;;;;;;6209786;23;20480;-66
2023/07/05 08:06:51;;;;;;;3.28;1.05;;;;;;;;;;6211970;23;20013;-66
2023/07/05 08:09:18;;;;;;;3.03;1.08;;;;;;;;;;6211016;23;20624;-66
2023/07/05 08:11:44;;;;;;;2.03;0.90;;;;;;;;;;6209316;23;20414;-66
2023/07/05 08:14:13;;;;;;;1.63;1.00;;;;;;;;;;6202807;23;20408;-66
2023/07/05 08:16:39;;;;;;;3.10;0.98;;;;;;;;;;6176248;23;20025;-66
2023/07/05 08:19:05;;;;;;;1.73;0.93;;;;;;;;;;6203093;23;20021;-66
2023/07/05 08:21:31;;;;;;;1.98;0.90;;;;;;;;;;6202555;23;20023;-66
2023/07/05 08:23:57;;;;;;;1.58;0.90;;;;;;;;;;6203013;23;20018;-66
2023/07/05 08:26:23;;;;;;;2.55;0.85;;;;;;;;;;6210142;23;20013;-66
2023/07/05 08:28:49;;;;;;;4.50;1.13;;;;;;;;;;6204585;23;20016;-66
2023/07/05 08:31:16;;;;;;;3.58;1.00;;;;;;;;;;6206710;23;20096;-66
2023/07/05 08:33:43;;;;;;;2.15;1.00;;;;;;;;;;6210457;23;20035;-66
2023/07/05 08:36:15;;;;;;;6.57;1.10;;;;;;;;;;6206328;23;20020;-66
2023/07/05 08:38:43;;;;;;;4.50;1.00;;;;;;;;;;6211569;23;20016;-66
2023/07/05 08:41:12;;;;;;;4.78;1.63;;;;;;;;;;6210931;23;20021;-66
2023/07/05 08:43:41;;;;;;;5.32;1.02;;;;;;;;;;6211229;23;20019;-66
2023/07/05 08:46:11;;;;;;;2.55;1.00;;;;;;;;;;6211504;23;20062;-67
2023/07/05 08:48:37;;;;;;;6.88;1.58;;;;;;;;;;6210539;23;20020;-66
2023/07/05 08:51:04;;;;;;;3.22;1.25;;;;;;;;;;6210846;23;20027;-66
2023/07/05 08:53:32;;;;;;;3.67;1.08;;;;;;;;;;6211714;23;20027;-66
2023/07/05 08:56:01;;;;;;;2.72;1.27;;;;;;;;;;6183665;23;20453;-66
2023/07/05 08:58:33;;;;;;;5.22;1.55;;;;;;;;;;6211355;23;20027;-66
2023/07/05 09:01:01;;;;;;;4.20;1.70;;;;;;;;;;6211065;23;20084;-66
2023/07/05 09:03:31;;;;;;;3.65;1.17;;;;;;;;;;6210767;23;20012;-66
2023/07/05 09:06:09;;;;;;;6.32;1.35;;;;;;;;;;6183745;23;20012;-66
2023/07/05 09:08:42;;;;;;;6.07;1.30;;;;;;;;;;6211495;23;20087;-66
2023/07/05 09:11:13;;;;;;;2.45;1.10;;;;;;;;;;6210516;23;20568;-66
2023/07/05 09:13:43;;;;;;;2.35;0.98;;;;;;;;;;6210906;23;20530;-66
2023/07/05 09:16:19;;;;;;;6.13;1.60;;;;;;;;;;6210870;23;20627;-66
2023/07/05 09:19:05;;;;;;;3.78;1.33;;;;;;;;;;6210880;23;20027;-66
2023/07/05 09:21:35;;;;;;;4.22;1.40;;;;;;;;;;6211007;23;20055;-66
2023/07/05 09:24:11;;;;;;;6.03;1.65;;;;;;;;;;6211005;23;20465;-66
2023/07/05 09:26:38;;;;;;;10.75;1.98;;;;;;;;;;6210327;23;20017;-66
2023/07/05 09:29:18;;;;;;;7.40;1.90;;;;;;;;;;6211459;23;20013;-66
2023/07/05 09:31:44;;;;;;;7.38;2.10;;;;;;;;;;6210440;23;20486;-66
2023/07/05 09:34:18;;;;;;;10.00;2.50;;;;;;;;;;6210275;23;20012;-65
2023/07/05 09:36:44;;;;;;;8.55;2.08;;;;;;;;;;6208252;23;20047;-66
2023/07/05 09:39:16;;;;;;;8.10;2.30;;;;;;;;;;6211108;23;20582;-66
2023/07/05 09:41:46;;;;;;;10.30;2.00;;;;;;;;;;6210081;23;20024;-67
2023/07/05 09:44:13;;;;;;;4.63;1.35;;;;;;;;;;6211595;23;20040;-66
2023/07/05 09:46:39;;;;;;;6.85;2.20;;;;;;;;;;6211681;23;20016;-66
2023/07/05 09:49:11;;;;;;;6.15;2.08;;;;;;;;;;6210791;23;20071;-66
2023/07/05 09:51:38;;;;;;;;;;;;;;;;;;6211688;23;20441;-65
2023/07/05 09:54:09;;;;;;;5.72;1.95;;;;;;;;;;6210868;23;20242;-66
2023/07/05 09:56:54;;;;;;;8.17;2.80;;;;;;;;;;6209998;23;20518;-65
2023/07/05 09:59:23;;;;;;;7.00;2.17;;;;;;;;;;6211227;23;20232;-65
2023/07/05 10:01:56;;;;;;;11.18;2.17;;;;;;;;;;6209888;23;20410;-65
2023/07/05 10:04:26;;;;;;;7.72;2.33;;;;;;;;;;6211148;23;20427;-65
2023/07/05 10:06:53;;;;;;;7.15;1.88;;;;;;;;;;6207620;23;20012;-65
2023/07/05 10:09:20;;;;;;;11.38;2.50;;;;;;;;;;6210195;23;20383;-65
2023/07/05 10:11:52;;;;;;;8.80;2.20;;;;;;;;;;6210453;23;20036;-65
2023/07/05 10:14:20;;;;;;;9.75;2.95;;;;;;;;;;6210449;23;20372;-65
2023/07/05 10:16:48;;;;;;;14.30;2.83;;;;;;;;;;6208353;23;20070;-65
2023/07/05 10:19:20;;;;;;;10.57;2.40;;;;;;;;;;6213236;23;20203;-65
2023/07/05 10:21:52;;;;;;;11.10;2.85;;;;;;;;;;6212456;23;20055;-65
2023/07/05 10:24:19;;;;;;;12.90;3.38;;;;;;;;;;6211734;23;20013;-65
2023/07/05 10:26:48;;;;;;;13.68;3.00;;;;;;;;;;6212713;23;20012;-65
2023/07/05 10:29:18;;;;;;;8.73;2.53;;;;;;;;;;6213465;23;20012;-65
2023/07/05 10:31:51;;;;;;;11.07;2.83;;;;;;;;;;6212043;23;20050;-65
2023/07/05 10:34:23;;;;;;;12.02;2.50;;;;;;;;;;6212217;23;20016;-65
2023/07/05 10:36:49;;;;;;;7.97;2.22;;;;;;;;;;6212848;23;20024;-65
2023/07/05 10:39:26;;;;;;;7.97;2.13;;;;;;;;;;6212684;23;20019;-65
2023/07/05 10:41:54;;;;;;;10.52;2.55;;;;;;;;;;6209854;23;20020;-65
2023/07/05 10:44:32;;;;;;;14.68;3.05;;;;;;;;;;6211009;23;20021;-65
2023/07/05 10:46:58;;;;;;;7.78;2.17;;;;;;;;;;6212267;23;20331;-65
2023/07/05 10:49:25;;;;;;;12.23;2.45;;;;;;;;;;6213042;23;20016;-65
2023/07/05 10:52:12;;;;;;;9.30;2.53;;;;;;;;;;6213263;23;20439;-65
2023/07/05 10:54:50;;;;;;;9.50;2.20;;;;;;;;;;6212032;23;20031;-64
2023/07/05 10:57:20;;;;;;;10.07;2.40;;;;;;;;;;6213205;23;20016;-64
2023/07/05 10:59:50;;;;;;;9.80;2.30;;;;;;;;;;6183503;23;20021;-64
2023/07/05 11:02:25;;;;;;;11.93;2.83;;;;;;;;;;6212341;23;20332;-65
2023/07/05 11:04:53;;;;;;;7.20;2.10;;;;;;;;;;6213812;23;20019;-65
2023/07/05 11:07:20;;;;;;;5.15;1.70;;;;;;;;;;6213480;23;20016;-64
2023/07/05 11:09:46;;;;;;;8.40;2.13;;;;;;;;;;6212548;23;20012;-65
2023/07/05 11:12:20;;;;;;;8.65;2.10;;;;;;;;;;6212988;23;20027;-65
2023/07/05 11:14:46;;;;;;;5.35;1.67;;;;;;;;;;6186216;23;20024;-65
2023/07/05 11:17:21;;;;;;;7.70;1.65;;;;;;;;;;6212261;23;20016;-65
2023/07/05 11:19:48;;;;;;;7.88;2.30;;;;;;;;;;6212715;23;20013;-64
2023/07/05 11:22:32;;;;;;;7.97;1.80;;;;;;;;;;6212528;23;20015;-64
2023/07/05 11:24:59;;;;;;;7.65;2.22;;;;;;;;;;6212409;23;20067;-64
2023/07/05 11:27:25;;;;;;;5.97;1.88;;;;;;;;;;6212531;23;20009;-66
2023/07/05 11:29:54;;;;;;;7.90;1.90;;;;;;;;;;6212593;23;20735;-66
2023/07/05 11:32:26;;;;;;;8.88;2.05;;;;;;;;;;6212126;23;20052;-66
2023/07/05 11:34:54;;;;;;;7.38;2.08;;;;;;;;;;6212561;23;20017;-66
2023/07/05 11:37:23;;;;;;;7.55;2.30;;;;;;;;;;6212763;23;20130;-65
2023/07/05 11:39:54;;;;;;;10.48;1.80;;;;;;;;;;6210316;23;20020;-65
2023/07/05 11:42:21;;;;;;;9.90;2.10;;;;;;;;;;6212249;23;20017;-65
2023/07/05 11:44:47;;;;;;;6.57;1.55;;;;;;;;;;6212677;23;20008;-65
2023/07/05 11:47:22;;;;;;;7.93;2.08;;;;;;;;;;6211547;23;20016;-65
2023/07/05 11:50:14;;;;;;;4.15;1.90;;;;;;;;;;6209020;23;20107;-65
2023/07/05 11:52:46;;;;;;;7.45;1.90;;;;;;;;;;6204591;23;20443;-65
2023/07/05 11:55:12;;;;;;;4.43;2.08;;;;;;;;;;6211203;23;20013;-64
2023/07/05 11:57:47;;;;;;;8.43;1.90;;;;;;;;;;6210978;23;20467;-64
2023/07/05 12:00:20;;;;;;;6.78;1.85;;;;;;;;;;6210621;23;20009;-64
2023/07/05 12:02:46;;;;;;;6.95;1.98;;;;;;;;;;6210796;23;20531;-64
2023/07/05 12:05:14;;;;;;;10.43;3.85;;;;;;;;;;6211491;23;20331;-64
2023/07/05 12:07:42;;;;;;;7.32;2.30;;;;;;;;;;6209794;23;20495;-64
2023/07/05 12:10:09;;;;;;;8.05;2.50;;;;;;;;;;6210707;23;20083;-64
2023/07/05 12:12:40;;;;;;;9.70;2.50;;;;;;;;;;6211029;23;20338;-64
2023/07/05 12:15:06;;;;;;;5.40;2.10;;;;;;;;;;6209554;23;20059;-65
2023/07/05 12:17:33;;;;;;;9.90;2.42;;;;;;;;;;6210887;23;20019;-65
2023/07/05 12:19:59;;;;;;;10.23;2.65;;;;;;;;;;6211053;23;20056;-65
2023/07/05 12:22:26;;;;;;;7.13;2.50;;;;;;;;;;6207557;23;20017;-64
2023/07/05 12:24:54;;;;;;;11.30;2.88;;;;;;;;;;6211041;23;20017;-64
2023/07/05 12:27:23;;;;;;;10.73;2.45;;;;;;;;;;6211036;23;20009;-65
2023/07/05 12:29:50;;;;;;;9.63;2.78;;;;;;;;;;6207146;23;20017;-64
2023/07/05 12:32:17;;;;;;;7.45;2.22;;;;;;;;;;6210457;23;20013;-65
2023/07/05 12:34:44;;;;;;;11.57;2.72;;;;;;;;;;6210454;23;20028;-65
2023/07/05 12:37:10;;;;;;;10.35;2.60;;;;;;;;;;6210533;23;20500;-65
2023/07/05 12:39:41;;;;;;;10.20;2.25;;;;;;;;;;6209640;23;20313;-65
2023/07/05 12:42:14;;;;;;;9.98;3.00;;;;;;;;;;6210781;23;20008;-65
2023/07/05 12:44:40;;;;;;;11.50;2.47;;;;;;;;;;6210684;23;20097;-65
2023/07/05 12:47:17;;;;;;;11.25;2.78;;;;;;;;;;6211020;23;20016;-65
2023/07/05 12:49:44;;;;;;;9.30;2.60;;;;;;;;;;6210547;23;20012;-65
2023/07/05 12:52:36;;;;;;;10.10;2.33;;;;;;;;;;6207800;23;20066;-65
2023/07/05 12:55:02;;;;;;;;;;;;;;;;;;6205557;23;20435;-65
2023/07/05 12:57:32;;;;;;;12.90;3.38;;;;;;;;;;6207616;23;19927;-65
2023/07/05 12:59:58;;;;;;;6.95;2.47;;;;;;;;;;6208907;23;20342;-65
2023/07/05 13:02:29;;;;;;;10.55;2.33;;;;;;;;;;6207243;23;20598;-65
2023/07/05 13:04:55;;;;;;;8.05;2.28;;;;;;;;;;6210717;23;20095;-65
2023/07/05 13:07:23;;;;;;;10.52;2.85;;;;;;;;;;6207473;23;20051;-65
2023/07/05 13:09:52;;;;;;;14.25;2.95;;;;;;;;;;6209335;23;20024;-65
2023/07/05 13:12:19;;;;;;;8.52;2.95;;;;;;;;;;6207158;23;20021;-65
2023/07/05 13:14:56;;;;;;;12.10;3.63;;;;;;;;;;6183742;23;20013;-65
2023/07/05 13:17:26;;;;;;;9.23;3.05;;;;;;;;;;6210239;23;20024;-65
2023/07/05 13:20:06;;;;;;;9.80;3.55;;;;;;;;;;6210294;23;20335;-65
2023/07/05 13:22:37;;;;;;;13.25;3.03;;;;;;;;;;6209272;23;20143;-65
2023/07/05 13:25:05;;;;;;;15.90;2.65;;;;;;;;;;6210143;23;20063;-65
2023/07/05 13:27:33;;;;;;;9.23;2.95;;;;;;;;;;6206268;23;20339;-65
2023/07/05 13:30:14;;;;;;;8.65;2.70;;;;;;;;;;6206335;23;20024;-66
2023/07/05 13:32:42;;;;;;;10.87;3.43;;;;;;;;;;6210984;23;20016;-66
2023/07/05 13:35:08;;;;;;;10.30;3.40;;;;;;;;;;6211652;23;20455;-65
2023/07/05 13:37:34;;;;;;;11.63;3.03;;;;;;;;;;6208301;23;20020;-66
2023/07/05 13:40:09;;;;;;;13.75;3.33;;;;;;;;;;6211922;23;20013;-65
2023/07/05 13:42:39;;;;;;;13.23;3.42;;;;;;;;;;6209007;23;20012;-66
2023/07/05 13:45:19;;;;;;;7.85;2.80;;;;;;;;;;6211038;23;20091;-65
2023/07/05 13:47:45;;;;;;;5.65;2.72;;;;;;;;;;6205440;23;20016;-65
2023/07/05 13:50:14;;;;;;;11.77;3.40;;;;;;;;;;6208507;23;20013;-66
2023/07/05 13:52:42;;;;;;;10.18;3.45;;;;;;;;;;6207943;23;20024;-66
2023/07/05 13:55:21;;;;;;;9.18;3.17;;;;;;;;;;6211629;23;20346;-66
2023/07/05 13:57:57;;;;;;;11.13;2.90;;;;;;;;;;6211189;23;20012;-65
2023/07/05 14:00:25;;;;;;;7.45;2.92;;;;;;;;;;6208225;23;20024;-65
2023/07/05 14:02:52;;;;;;;11.25;3.22;;;;;;;;;;6209661;23;20074;-65
2023/07/05 14:05:19;;;;;;;7.20;3.17;;;;;;;;;;6210926;23;20088;-66
2023/07/05 14:07:45;;;;;;;10.18;3.40;;;;;;;;;;6210610;23;20013;-66
2023/07/05 14:10:15;;;;;;;12.85;3.33;;;;;;;;;;6208464;23;20024;-66
2023/07/05 14:12:41;;;;;;;12.55;3.80;;;;;;;;;;6210928;23;20120;-66
2023/07/05 14:15:23;;;;;;;7.50;3.00;;;;;;;;;;6210227;23;20092;-66
2023/07/05 14:17:49;;;;;;;7.85;2.70;;;;;;;;;;6211306;23;20024;-66
2023/07/05 14:20:15;;;;;;;12.45;3.38;;;;;;;;;;6210610;23;20017;-65
2023/07/05 14:22:41;;;;;;;7.03;2.88;;;;;;;;;;6210687;23;20793;-65
2023/07/05 14:25:16;;;;;;;9.15;3.05;;;;;;;;;;6208723;23;20359;-65
2023/07/05 14:27:43;;;;;;;10.20;2.95;;;;;;;;;;6211468;23;20005;-64
2023/07/05 14:30:09;;;;;;;7.03;3.40;;;;;;;;;;6207801;23;20374;-65
2023/07/05 14:32:35;;;;;;;6.68;3.00;;;;;;;;;;6210868;23;20099;-66
2023/07/05 14:35:01;;;;;;;10.70;2.88;;;;;;;;;;6211256;23;20029;-65
2023/07/05 14:37:29;;;;;;;10.57;2.63;;;;;;;;;;6210551;23;20650;-65
2023/07/05 14:39:55;;;;;;;11.88;2.92;;;;;;;;;;6211415;23;20016;-64
2023/07/05 14:42:22;;;;;;;5.10;2.20;;;;;;;;;;6211753;23;20015;-64